createdAt,value
2019-02-09T00:00:30.159Z,3.60
2019-02-09T00:01:30.210Z,4.50
2019-02-09T00:02:30.264Z,4.70
2019-02-09T00:03:30.320Z,3.80
2019-02-09T00:04:30.373Z,1.70
2019-02-09T00:05:30.429Z,4.40
2019-02-09T00:06:30.480Z,2.20
2019-02-09T00:07:30.535Z,2.30
2019-02-09T00:08:30.589Z,4.10
2019-02-09T00:09:30.646Z,4.10
2019-02-09T00:10:30.695Z,3.90
2019-02-09T00:11:30.751Z,3.70
2019-02-09T00:12:30.804Z,4.10
2019-02-09T00:13:30.859Z,4.50
2019-02-09T00:14:30.918Z,4.10
2019-02-09T00:15:30.966Z,2.10
2019-02-09T00:16:31.023Z,1.80
2019-02-09T00:17:31.076Z,2.20
2019-02-09T00:18:31.127Z,3.50
2019-02-09T00:19:31.182Z,1.90
2019-02-09T00:20:31.237Z,5.90
2019-02-09T00:21:31.291Z,4.20
2019-02-09T00:22:31.345Z,3.90
2019-02-09T00:23:31.399Z,1.90
2019-02-09T00:24:31.453Z,3.50
2019-02-09T00:25:31.507Z,2.30
2019-02-09T00:26:31.560Z,3.50
2019-02-09T00:27:31.613Z,3.80
2019-02-09T00:28:31.684Z,4.90
2019-02-09T00:29:31.723Z,2.50
2019-02-09T00:30:31.775Z,5.50
2019-02-09T00:31:31.832Z,4.10
2019-02-09T00:32:31.882Z,4.40
2019-02-09T00:33:31.937Z,3.60
2019-02-09T00:34:31.990Z,2.70
2019-02-09T00:35:32.043Z,3.10
2019-02-09T00:36:32.096Z,4.00
2019-02-09T00:37:32.152Z,3.60
2019-02-09T00:38:32.205Z,1.80
2019-02-09T00:39:32.257Z,2.20
2019-02-09T00:40:32.349Z,2.40
2019-02-09T00:41:32.365Z,3.00
2019-02-09T00:42:32.417Z,3.00
2019-02-09T00:43:32.470Z,2.30
2019-02-09T00:44:32.525Z,4.70
2019-02-09T00:45:32.579Z,5.20
2019-02-09T00:46:32.631Z,2.30
2019-02-09T00:47:32.683Z,1.70
2019-02-09T00:48:32.738Z,3.90
2019-02-09T00:49:32.790Z,4.30
2019-02-09T00:50:33.291Z,3.30
2019-02-09T00:51:33.382Z,2.50
2019-02-09T00:52:33.326Z,2.80
2019-02-09T00:53:33.003Z,2.20
2019-02-09T00:54:33.055Z,3.40
2019-02-09T00:55:33.144Z,2.00
2019-02-09T00:56:33.162Z,3.00
2019-02-09T00:57:33.215Z,2.50
2019-02-09T00:58:33.268Z,2.80
2019-02-09T00:59:33.322Z,4.30
2019-02-09T01:00:33.374Z,4.20
2019-02-09T01:01:33.425Z,2.70
2019-02-09T01:02:33.478Z,2.90
2019-02-09T01:03:33.531Z,3.20
2019-02-09T01:04:33.585Z,3.00
2019-02-09T01:05:33.638Z,5.20
2019-02-09T01:06:33.940Z,3.40
2019-02-09T01:07:33.742Z,4.80
2019-02-09T01:08:33.796Z,4.70
2019-02-09T01:09:33.859Z,2.90
2019-02-09T01:10:33.903Z,2.10
2019-02-09T01:11:33.955Z,4.00
2019-02-09T01:12:34.007Z,5.10
2019-02-09T01:13:34.063Z,3.80
2019-02-09T01:14:34.112Z,2.90
2019-02-09T01:15:34.164Z,3.80
2019-02-09T01:16:34.218Z,4.50
2019-02-09T01:17:34.271Z,4.20
2019-02-09T01:18:34.322Z,2.40
2019-02-09T01:19:34.374Z,3.80
2019-02-09T01:20:34.428Z,2.20
2019-02-09T01:21:34.482Z,2.20
2019-02-09T01:22:34.532Z,3.30
2019-02-09T01:23:34.586Z,3.70
2019-02-09T01:24:34.645Z,4.60
2019-02-09T01:25:34.691Z,4.10
2019-02-09T01:26:34.743Z,4.10
2019-02-09T01:27:34.796Z,4.10
2019-02-09T01:28:34.849Z,3.20
2019-02-09T01:29:34.912Z,2.40
2019-02-09T01:30:34.955Z,3.40
2019-02-09T01:31:35.008Z,2.20
2019-02-09T01:32:35.059Z,3.20
2019-02-09T01:33:35.113Z,2.70
2019-02-09T01:34:35.164Z,5.20
2019-02-09T01:35:35.217Z,3.30
2019-02-09T01:36:35.271Z,3.50
2019-02-09T01:37:35.324Z,3.70
2019-02-09T01:38:35.376Z,2.20
2019-02-09T01:39:36.043Z,2.70
2019-02-09T01:40:36.142Z,1.60
2019-02-09T01:41:35.534Z,3.40
2019-02-09T01:42:35.586Z,3.70
2019-02-09T01:43:35.640Z,4.10
2019-02-09T01:44:35.693Z,4.80
2019-02-09T01:45:35.745Z,3.40
2019-02-09T01:46:35.798Z,2.20
2019-02-09T01:47:35.851Z,3.30
2019-02-09T01:48:35.904Z,2.80
2019-02-09T01:49:35.956Z,2.60
2019-02-09T01:50:36.010Z,4.00
2019-02-09T01:51:36.063Z,3.10
2019-02-09T01:52:36.114Z,3.80
2019-02-09T01:53:36.167Z,3.90
2019-02-09T01:54:36.221Z,2.40
2019-02-09T01:55:36.273Z,2.90
2019-02-09T01:56:36.328Z,2.80
2019-02-09T01:57:36.379Z,4.30
2019-02-09T01:58:36.431Z,3.50
2019-02-09T01:59:36.484Z,2.60
2019-02-09T02:00:36.868Z,3.20
2019-02-09T02:01:37.124Z,2.80
2019-02-09T02:02:36.645Z,3.50
2019-02-09T02:03:36.698Z,1.90
2019-02-09T02:04:36.750Z,1.70
2019-02-09T02:05:36.804Z,3.00
2019-02-09T02:06:36.855Z,3.30
2019-02-09T02:07:36.910Z,2.70
2019-02-09T02:08:36.964Z,2.80
2019-02-09T02:09:37.048Z,3.60
2019-02-09T02:10:37.067Z,2.30
2019-02-09T02:11:37.122Z,3.70
2019-02-09T02:12:37.174Z,3.20
2019-02-09T02:13:37.228Z,3.30
2019-02-09T02:14:37.279Z,3.90
2019-02-09T02:15:37.334Z,3.20
2019-02-09T02:16:37.387Z,2.90
2019-02-09T02:17:37.440Z,2.50
2019-02-09T02:18:37.492Z,3.10
2019-02-09T02:19:38.240Z,3.90
2019-02-09T02:20:37.601Z,2.10
2019-02-09T02:21:37.652Z,2.90
2019-02-09T02:22:37.705Z,3.20
2019-02-09T02:23:37.759Z,2.40
2019-02-09T02:24:37.812Z,2.60
2019-02-09T02:25:37.867Z,2.30
2019-02-09T02:26:37.919Z,2.80
2019-02-09T02:27:37.973Z,1.90
2019-02-09T02:28:38.054Z,4.90
2019-02-09T02:29:38.079Z,2.50
2019-02-09T02:30:38.135Z,2.60
2019-02-09T02:31:38.191Z,2.70
2019-02-09T02:32:38.240Z,2.80
2019-02-09T02:33:38.682Z,3.30
2019-02-09T02:34:38.749Z,4.30
2019-02-09T02:35:38.805Z,2.20
2019-02-09T02:36:38.822Z,2.40
2019-02-09T02:37:38.506Z,3.20
2019-02-09T02:38:39.145Z,2.30
2019-02-09T02:39:38.642Z,1.80
2019-02-09T02:40:38.666Z,2.80
2019-02-09T02:41:38.724Z,2.90
2019-02-09T02:42:38.775Z,1.30
2019-02-09T02:43:38.826Z,3.10
2019-02-09T02:44:38.881Z,3.80
2019-02-09T02:45:38.935Z,7.00
2019-02-09T02:46:38.995Z,2.60
2019-02-09T02:47:39.040Z,3.10
2019-02-09T02:48:39.095Z,3.00
2019-02-09T02:49:39.151Z,4.10
2019-02-09T02:50:39.202Z,1.40
2019-02-09T02:51:39.262Z,3.30
2019-02-09T02:52:39.308Z,1.60
2019-02-09T02:53:39.401Z,3.60
2019-02-09T02:54:39.415Z,4.00
2019-02-09T02:55:39.468Z,2.00
2019-02-09T02:56:39.531Z,2.20
2019-02-09T02:57:39.579Z,1.50
2019-02-09T02:58:39.636Z,4.30
2019-02-09T02:59:39.684Z,2.70
2019-02-09T03:00:39.738Z,3.80
2019-02-09T03:01:39.798Z,3.20
2019-02-09T03:02:39.845Z,2.70
2019-02-09T03:03:39.911Z,3.80
2019-02-09T03:04:39.953Z,3.30
2019-02-09T03:05:40.008Z,2.10
2019-02-09T03:06:40.059Z,2.10
2019-02-09T03:07:40.113Z,2.90
2019-02-09T03:08:40.168Z,4.10
2019-02-09T03:09:40.222Z,1.70
2019-02-09T03:10:40.274Z,2.10
2019-02-09T03:11:40.328Z,2.10
2019-02-09T03:12:40.382Z,1.60
2019-02-09T03:13:40.433Z,2.30
2019-02-09T03:14:40.487Z,3.10
2019-02-09T03:15:40.540Z,1.70
2019-02-09T03:16:40.595Z,2.20
2019-02-09T03:17:40.647Z,3.80
2019-02-09T03:18:40.712Z,2.10
2019-02-09T03:19:40.754Z,2.90
2019-02-09T03:20:40.806Z,1.60
2019-02-09T03:21:40.862Z,2.90
2019-02-09T03:22:40.913Z,2.60
2019-02-09T03:23:40.965Z,2.40
2019-02-09T03:24:41.020Z,2.30
2019-02-09T03:25:41.075Z,2.00
2019-02-09T03:26:41.136Z,1.80
2019-02-09T03:27:41.178Z,1.10
2019-02-09T03:28:41.231Z,3.10
2019-02-09T03:29:41.301Z,2.30
2019-02-09T03:30:47.679Z,2.30
2019-02-09T03:31:41.392Z,1.70
2019-02-09T03:32:41.446Z,2.90
2019-02-09T03:33:41.499Z,2.60
2019-02-09T03:34:41.551Z,0.90
2019-02-09T03:35:41.605Z,3.00
2019-02-09T03:36:41.658Z,1.30
2019-02-09T03:37:41.712Z,1.20
2019-02-09T03:38:41.762Z,1.40
2019-02-09T03:39:41.820Z,1.60
2019-02-09T03:40:41.873Z,2.60
2019-02-09T03:41:41.923Z,1.30
2019-02-09T03:42:41.975Z,1.50
2019-02-09T03:43:42.029Z,1.60
2019-02-09T03:44:42.084Z,2.20
2019-02-09T03:45:42.135Z,1.20
2019-02-09T03:46:42.188Z,2.70
2019-02-09T03:47:42.241Z,1.90
2019-02-09T03:48:42.295Z,1.90
2019-02-09T03:49:42.348Z,1.40
2019-02-09T03:50:42.404Z,2.90
2019-02-09T03:51:42.459Z,0.90
2019-02-09T03:52:42.510Z,1.30
2019-02-09T03:53:42.561Z,0.80
2019-02-09T03:54:42.614Z,1.20
2019-02-09T03:55:42.668Z,1.00
2019-02-09T03:56:42.722Z,2.50
2019-02-09T03:57:42.783Z,1.50
2019-02-09T03:58:42.833Z,0.60
2019-02-09T03:59:42.879Z,1.50
2019-02-09T04:00:42.933Z,2.00
2019-02-09T04:01:42.988Z,0.80
2019-02-09T04:02:43.042Z,2.30
2019-02-09T04:03:43.093Z,0.80
2019-02-09T04:04:43.147Z,2.10
2019-02-09T04:05:43.199Z,0.80
2019-02-09T04:06:43.254Z,1.60
2019-02-09T04:07:43.319Z,0.80
2019-02-09T04:08:43.360Z,0.80
2019-02-09T04:09:43.414Z,2.70
2019-02-09T04:10:43.466Z,0.40
2019-02-09T04:11:43.518Z,0.60
2019-02-09T04:12:43.573Z,1.90
2019-02-09T04:13:43.626Z,3.00
2019-02-09T04:14:43.677Z,2.70
2019-02-09T04:15:43.732Z,0.60
2019-02-09T04:16:43.784Z,0.70
2019-02-09T04:17:43.840Z,1.30
2019-02-09T04:18:43.891Z,1.60
2019-02-09T04:19:43.945Z,1.40
2019-02-09T04:20:44.002Z,0.60
2019-02-09T04:21:44.054Z,4.40
2019-02-09T04:22:44.104Z,1.40
2019-02-09T04:23:44.157Z,2.10
2019-02-09T04:24:44.210Z,2.40
2019-02-09T04:25:44.265Z,0.70
2019-02-09T04:26:44.317Z,3.00
2019-02-09T04:27:44.371Z,1.40
2019-02-09T04:28:44.422Z,1.20
2019-02-09T04:29:44.494Z,2.40
2019-02-09T04:30:44.530Z,0.70
2019-02-09T04:31:44.583Z,0.50
2019-02-09T04:32:44.636Z,1.20
2019-02-09T04:33:44.695Z,0.30
2019-02-09T04:34:44.744Z,1.70
2019-02-09T04:35:44.795Z,0.80
2019-02-09T04:36:44.848Z,1.40
2019-02-09T04:37:44.907Z,0.90
2019-02-09T04:38:44.953Z,0.70
2019-02-09T04:39:45.008Z,1.10
2019-02-09T04:40:45.062Z,1.80
2019-02-09T04:41:45.115Z,0.60
2019-02-09T04:42:45.165Z,3.10
2019-02-09T04:43:45.219Z,0.60
2019-02-09T04:44:45.275Z,1.90
2019-02-09T04:45:45.327Z,1.20
2019-02-09T04:46:45.380Z,2.10
2019-02-09T04:47:45.432Z,1.40
2019-02-09T04:48:45.496Z,3.10
2019-02-09T04:49:45.539Z,1.60
2019-02-09T04:50:45.594Z,3.10
2019-02-09T04:51:45.645Z,2.80
2019-02-09T04:52:45.699Z,2.90
2019-02-09T04:53:45.751Z,3.10
2019-02-09T04:54:45.803Z,4.20
2019-02-09T04:55:45.858Z,2.60
2019-02-09T04:56:45.912Z,4.70
2019-02-09T04:57:46.476Z,4.10
2019-02-09T04:58:46.017Z,2.90
2019-02-09T04:59:46.069Z,2.30
2019-02-09T05:00:46.123Z,1.00
2019-02-09T05:01:46.181Z,1.20
2019-02-09T05:02:46.227Z,2.30
2019-02-09T05:03:46.282Z,3.30
2019-02-09T05:04:46.335Z,3.90
2019-02-09T05:05:46.392Z,3.00
2019-02-09T05:06:46.441Z,3.90
2019-02-09T05:07:46.495Z,4.60
2019-02-09T05:08:46.547Z,2.50
2019-02-09T05:09:46.602Z,1.50
2019-02-09T05:10:46.653Z,1.50
2019-02-09T05:11:46.707Z,2.80
2019-02-09T05:12:46.759Z,1.90
2019-02-09T05:13:46.814Z,4.00
2019-02-09T05:14:46.892Z,2.20
2019-02-09T05:15:46.919Z,2.60
2019-02-09T05:16:46.973Z,2.00
2019-02-09T05:17:47.028Z,2.70
2019-02-09T05:18:47.080Z,2.80
2019-02-09T05:19:47.133Z,4.70
2019-02-09T05:20:47.185Z,1.60
2019-02-09T05:21:47.237Z,3.20
2019-02-09T05:22:47.292Z,2.10
2019-02-09T05:23:47.347Z,1.60
2019-02-09T05:24:47.397Z,3.70
2019-02-09T05:25:47.453Z,1.10
2019-02-09T05:26:47.504Z,2.50
2019-02-09T05:27:47.560Z,2.00
2019-02-09T05:28:47.618Z,1.50
2019-02-09T05:29:47.663Z,2.30
2019-02-09T05:30:47.717Z,1.60
2019-02-09T05:31:47.772Z,3.20
2019-02-09T05:32:47.830Z,2.50
2019-02-09T05:33:47.878Z,0.80
2019-02-09T05:34:47.928Z,4.80
2019-02-09T05:35:47.980Z,2.70
2019-02-09T05:36:48.035Z,2.20
2019-02-09T05:37:48.089Z,1.60
2019-02-09T05:38:48.140Z,2.30
2019-02-09T05:39:48.193Z,2.10
2019-02-09T05:40:48.246Z,4.70
2019-02-09T05:41:48.304Z,2.50
2019-02-09T05:42:48.352Z,3.40
2019-02-09T05:43:48.404Z,8.10
2019-02-09T05:44:48.465Z,3.00
2019-02-09T05:45:48.512Z,1.80
2019-02-09T05:46:48.563Z,2.30
2019-02-09T05:47:48.617Z,2.30
2019-02-09T05:48:48.669Z,1.70
2019-02-09T05:49:48.722Z,1.90
2019-02-09T05:50:48.777Z,2.90
2019-02-09T05:51:48.831Z,2.60
2019-02-09T05:52:48.881Z,4.10
2019-02-09T05:53:48.936Z,1.50
2019-02-09T05:54:48.987Z,2.60
2019-02-09T05:55:49.039Z,5.30
2019-02-09T05:56:49.094Z,2.50
2019-02-09T05:57:49.163Z,3.10
2019-02-09T05:58:49.198Z,2.00
2019-02-09T05:59:49.256Z,4.20
2019-02-09T06:00:49.306Z,1.70
2019-02-09T06:01:49.360Z,1.80
2019-02-09T06:02:49.410Z,2.40
2019-02-09T06:03:49.462Z,1.70
2019-02-09T06:04:49.521Z,1.70
2019-02-09T06:05:49.569Z,3.00
2019-02-09T06:06:49.622Z,3.30
2019-02-09T06:07:49.676Z,2.70
2019-02-09T06:08:49.727Z,2.60
2019-02-09T06:09:49.781Z,3.20
2019-02-09T06:10:49.832Z,0.60
2019-02-09T06:11:49.886Z,3.40
2019-02-09T06:12:49.938Z,1.80
2019-02-09T06:13:50.001Z,2.10
2019-02-09T06:14:50.045Z,2.40
2019-02-09T06:15:50.097Z,3.90
2019-02-09T06:16:50.151Z,4.00
2019-02-09T06:17:50.213Z,3.40
2019-02-09T06:18:50.255Z,2.80
2019-02-09T06:19:50.308Z,3.70
2019-02-09T06:20:50.364Z,0.80
2019-02-09T06:21:50.414Z,0.70
2019-02-09T06:22:50.466Z,2.60
2019-02-09T06:23:50.830Z,2.80
2019-02-09T06:24:50.574Z,3.00
2019-02-09T06:25:50.627Z,0.70
2019-02-09T06:26:50.678Z,1.40
2019-02-09T06:27:50.731Z,2.40
2019-02-09T06:28:50.784Z,1.50
2019-02-09T06:29:50.839Z,0.40
2019-02-09T06:30:50.890Z,2.00
2019-02-09T06:31:51.932Z,0.50
2019-02-09T06:32:50.997Z,0.30
2019-02-09T06:33:51.053Z,2.90
2019-02-09T06:34:51.100Z,2.30
2019-02-09T06:35:51.167Z,1.70
2019-02-09T06:36:51.212Z,1.50
2019-02-09T06:37:51.260Z,2.30
2019-02-09T06:38:51.312Z,0.80
2019-02-09T06:39:51.367Z,4.30
2019-02-09T06:40:51.463Z,1.10
2019-02-09T06:41:51.472Z,2.70
2019-02-09T06:42:51.523Z,2.50
2019-02-09T06:43:51.578Z,1.60
2019-02-09T06:44:51.630Z,4.30
2019-02-09T06:45:52.057Z,2.80
2019-02-09T06:46:51.735Z,1.90
2019-02-09T06:47:51.788Z,4.90
2019-02-09T06:48:51.841Z,2.00
2019-02-09T06:49:51.895Z,2.70
2019-02-09T06:50:51.948Z,3.40
2019-02-09T06:51:52.000Z,1.40
2019-02-09T06:52:52.053Z,2.60
2019-02-09T06:53:52.106Z,2.30
2019-02-09T06:54:52.159Z,2.90
2019-02-09T06:55:52.211Z,2.60
2019-02-09T06:56:52.264Z,2.40
2019-02-09T06:57:52.318Z,2.30
2019-02-09T06:58:52.369Z,2.30
2019-02-09T06:59:52.422Z,3.30
2019-02-09T07:00:53.102Z,6.90
2019-02-09T07:01:52.531Z,3.00
2019-02-09T07:02:54.453Z,1.70
2019-02-09T07:03:52.636Z,4.30
2019-02-09T07:04:52.689Z,4.40
2019-02-09T07:05:52.740Z,2.00
2019-02-09T07:06:52.793Z,3.50
2019-02-09T07:07:52.849Z,2.80
2019-02-09T07:08:52.900Z,2.30
2019-02-09T07:09:52.953Z,2.70
2019-02-09T07:10:53.004Z,6.10
2019-02-09T07:11:53.058Z,1.20
2019-02-09T07:12:53.115Z,1.10
2019-02-09T07:13:53.164Z,3.00
2019-02-09T07:14:53.216Z,2.50
2019-02-09T07:15:53.268Z,2.50
2019-02-09T07:16:53.323Z,1.70
2019-02-09T07:17:53.379Z,1.90
2019-02-09T07:18:53.428Z,2.80
2019-02-09T07:19:53.480Z,4.50
2019-02-09T07:20:53.535Z,2.80
2019-02-09T07:21:53.587Z,3.10
2019-02-09T07:22:53.639Z,1.70
2019-02-09T07:23:53.693Z,3.10
2019-02-09T07:24:55.080Z,2.40
2019-02-09T07:25:53.799Z,1.50
2019-02-09T07:26:53.852Z,1.50
2019-02-09T07:27:53.906Z,1.60
2019-02-09T07:28:53.959Z,1.90
2019-02-09T07:29:54.013Z,1.50
2019-02-09T07:30:54.062Z,3.50
2019-02-09T07:31:56.481Z,4.00
2019-02-09T07:32:54.170Z,5.30
2019-02-09T07:33:54.222Z,2.60
2019-02-09T07:34:54.275Z,1.50
2019-02-09T07:35:54.329Z,1.30
2019-02-09T07:36:54.382Z,2.00
2019-02-09T07:37:54.442Z,2.20
2019-02-09T07:38:54.487Z,3.10
2019-02-09T07:39:54.540Z,4.00
2019-02-09T07:40:54.594Z,1.10
2019-02-09T07:41:54.647Z,1.50
2019-02-09T07:42:54.700Z,2.90
2019-02-09T07:43:54.752Z,2.90
2019-02-09T07:44:54.805Z,1.40
2019-02-09T07:45:54.859Z,3.60
2019-02-09T07:46:54.912Z,3.00
2019-02-09T07:47:54.963Z,4.10
2019-02-09T07:48:55.017Z,5.90
2019-02-09T07:49:55.071Z,5.00
2019-02-09T07:50:55.123Z,3.70
2019-02-09T07:51:55.176Z,3.00
2019-02-09T07:52:55.229Z,3.60
2019-02-09T07:53:55.282Z,6.20
2019-02-09T07:54:55.335Z,2.60
2019-02-09T07:55:55.387Z,4.80
2019-02-09T07:56:55.441Z,3.10
2019-02-09T07:57:55.496Z,3.90
2019-02-09T07:58:55.547Z,5.00
2019-02-09T07:59:55.601Z,3.00
2019-02-09T08:00:55.654Z,2.50
2019-02-09T08:01:55.707Z,4.80
2019-02-09T08:02:55.799Z,2.20
2019-02-09T08:03:55.814Z,2.00
2019-02-09T08:04:55.866Z,3.60
2019-02-09T08:05:55.920Z,4.00
2019-02-09T08:06:55.972Z,6.50
2019-02-09T08:07:56.033Z,4.60
2019-02-09T08:08:56.081Z,5.00
2019-02-09T08:09:56.134Z,3.90
2019-02-09T08:10:56.186Z,5.80
2019-02-09T08:11:56.239Z,4.00
2019-02-09T08:12:56.293Z,5.70
2019-02-09T08:13:56.350Z,4.60
2019-02-09T08:14:56.399Z,4.90
2019-02-09T08:15:56.453Z,6.20
2019-02-09T08:16:56.507Z,3.90
2019-02-09T08:17:56.560Z,6.30
2019-02-09T08:18:56.614Z,2.00
2019-02-09T08:19:56.687Z,1.80
2019-02-09T08:20:56.721Z,2.00
2019-02-09T08:21:56.793Z,3.30
2019-02-09T08:22:56.828Z,5.40
2019-02-09T08:23:56.881Z,3.70
2019-02-09T08:24:56.935Z,3.90
2019-02-09T08:25:56.992Z,2.90
2019-02-09T08:26:57.043Z,5.60
2019-02-09T08:27:57.128Z,2.30
2019-02-09T08:28:57.150Z,6.70
2019-02-09T08:29:57.204Z,2.80
2019-02-09T08:30:57.781Z,6.20
2019-02-09T08:31:57.311Z,8.50
2019-02-09T08:32:57.365Z,4.70
2019-02-09T08:33:57.422Z,4.20
2019-02-09T08:34:57.472Z,4.90
2019-02-09T08:35:57.527Z,5.20
2019-02-09T08:36:57.580Z,3.30
2019-02-09T08:37:57.635Z,3.80
2019-02-09T08:38:57.688Z,2.60
2019-02-09T08:39:57.743Z,2.50
2019-02-09T08:40:57.795Z,2.40
2019-02-09T08:41:57.858Z,3.80
2019-02-09T08:42:57.904Z,3.60
2019-02-09T08:43:57.960Z,3.60
2019-02-09T08:44:58.013Z,3.30
2019-02-09T08:45:58.070Z,5.80
2019-02-09T08:46:58.121Z,4.20
2019-02-09T08:47:58.175Z,4.80
2019-02-09T08:48:58.231Z,2.70
2019-02-09T08:49:58.285Z,1.90
2019-02-09T08:50:58.338Z,4.60
2019-02-09T08:51:58.394Z,7.30
2019-02-09T08:52:58.448Z,7.20
2019-02-09T08:53:58.507Z,3.30
2019-02-09T08:54:58.555Z,6.80
2019-02-09T08:55:58.611Z,6.40
2019-02-09T08:56:58.664Z,4.70
2019-02-09T08:57:58.720Z,6.30
2019-02-09T08:58:58.786Z,2.50
2019-02-09T08:59:58.828Z,4.60
2019-02-09T09:00:58.884Z,4.20
2019-02-09T09:01:58.942Z,4.60
2019-02-09T09:02:58.993Z,1.80
2019-02-09T09:03:59.046Z,2.90
2019-02-09T09:04:59.103Z,5.20
2019-02-09T09:05:59.156Z,5.00
2019-02-09T09:06:59.210Z,6.40
2019-02-09T09:07:59.298Z,7.40
2019-02-09T09:08:59.318Z,4.60
2019-02-09T09:09:59.371Z,4.10
2019-02-09T09:10:59.426Z,5.00
2019-02-09T09:11:59.481Z,3.90
2019-02-09T09:12:59.535Z,3.90
2019-02-09T09:13:59.590Z,3.30
2019-02-09T09:14:59.646Z,7.10
2019-02-09T09:15:59.698Z,3.60
2019-02-09T09:16:59.754Z,4.40
2019-02-09T09:17:59.807Z,8.60
2019-02-09T09:18:59.861Z,3.10
2019-02-09T09:19:59.915Z,4.90
2019-02-09T09:20:59.970Z,2.50
2019-02-09T09:22:00.026Z,4.60
2019-02-09T09:23:00.079Z,7.00
2019-02-09T09:24:00.132Z,6.00
2019-02-09T09:25:00.193Z,7.70
2019-02-09T09:26:00.241Z,6.30
2019-02-09T09:27:00.299Z,4.60
2019-02-09T09:28:00.349Z,5.40
2019-02-09T09:29:00.402Z,3.20
2019-02-09T09:30:00.458Z,5.20
2019-02-09T09:31:00.512Z,6.80
2019-02-09T09:32:00.566Z,3.60
2019-02-09T09:33:00.628Z,6.60
2019-02-09T09:34:00.678Z,7.50
2019-02-09T09:35:00.734Z,6.70
2019-02-09T09:36:00.782Z,7.60
2019-02-09T09:37:00.837Z,5.20
2019-02-09T09:38:01.719Z,5.40
2019-02-09T09:39:02.165Z,7.10
2019-02-09T09:40:01.679Z,4.00
2019-02-09T09:41:01.055Z,5.80
2019-02-09T09:42:01.115Z,4.50
2019-02-09T09:43:01.164Z,5.30
2019-02-09T09:44:01.219Z,3.90
2019-02-09T09:45:01.286Z,3.30
2019-02-09T09:46:01.331Z,7.30
2019-02-09T09:47:01.383Z,5.30
2019-02-09T09:48:01.440Z,10.50
2019-02-09T09:49:01.512Z,8.50
2019-02-09T09:50:01.550Z,3.70
2019-02-09T09:51:01.604Z,4.70
2019-02-09T09:52:01.660Z,4.10
2019-02-09T09:53:01.716Z,6.80
2019-02-09T09:54:01.771Z,6.10
2019-02-09T09:55:01.825Z,5.40
2019-02-09T09:56:01.879Z,4.10
2019-02-09T09:57:01.934Z,3.70
2019-02-09T09:58:01.991Z,5.60
2019-02-09T09:59:02.045Z,5.80
2019-02-09T10:00:02.101Z,3.50
2019-02-09T10:01:02.156Z,4.10
2019-02-09T10:02:02.213Z,7.20
2019-02-09T10:03:02.267Z,9.40
2019-02-09T10:04:02.322Z,4.40
2019-02-09T10:05:02.380Z,6.90
2019-02-09T10:06:02.434Z,7.50
2019-02-09T10:07:02.489Z,6.60
2019-02-09T10:08:02.544Z,5.10
2019-02-09T10:09:02.598Z,8.30
2019-02-09T10:10:02.655Z,6.40
2019-02-09T10:11:02.709Z,5.60
2019-02-09T10:12:02.765Z,4.20
2019-02-09T10:13:02.821Z,5.40
2019-02-09T10:14:08.683Z,5.10
2019-02-09T10:15:02.931Z,8.00
2019-02-09T10:16:03.586Z,8.10
2019-02-09T10:17:03.040Z,6.10
2019-02-09T10:18:03.096Z,10.50
2019-02-09T10:19:03.151Z,4.50
2019-02-09T10:20:03.206Z,5.70
2019-02-09T10:21:03.262Z,4.60
2019-02-09T10:22:03.320Z,6.00
2019-02-09T10:23:03.372Z,5.20
2019-02-09T10:24:03.427Z,7.50
2019-02-09T10:25:03.482Z,4.90
2019-02-09T10:26:03.537Z,6.00
2019-02-09T10:27:03.593Z,6.70
2019-02-09T10:28:03.649Z,5.60
2019-02-09T10:29:03.704Z,5.50
2019-02-09T10:30:03.761Z,3.40
2019-02-09T10:31:03.814Z,9.50
2019-02-09T10:32:03.872Z,6.40
2019-02-09T10:33:03.926Z,7.40
2019-02-09T10:34:03.982Z,7.20
2019-02-09T10:35:04.037Z,6.80
2019-02-09T10:36:04.092Z,6.60
2019-02-09T10:37:04.149Z,9.00
2019-02-09T10:38:04.212Z,3.60
2019-02-09T10:39:04.260Z,5.90
2019-02-09T10:40:04.316Z,5.70
2019-02-09T10:41:04.371Z,7.40
2019-02-09T10:42:04.427Z,7.90
2019-02-09T10:43:04.483Z,5.80
2019-02-09T10:44:04.539Z,3.50
2019-02-09T10:45:04.596Z,7.50
2019-02-09T10:46:04.651Z,5.70
2019-02-09T10:47:04.705Z,9.50
2019-02-09T10:48:04.765Z,6.70
2019-02-09T10:49:04.818Z,5.60
2019-02-09T10:50:04.875Z,5.50
2019-02-09T10:51:04.930Z,4.40
2019-02-09T10:52:04.987Z,7.10
2019-02-09T10:53:05.053Z,5.10
2019-02-09T10:54:05.097Z,3.60
2019-02-09T10:55:05.154Z,7.80
2019-02-09T10:56:05.210Z,8.30
2019-02-09T10:57:05.268Z,7.10
2019-02-09T10:58:05.330Z,3.70
2019-02-09T10:59:05.380Z,8.20
2019-02-09T11:00:05.434Z,10.50
2019-02-09T11:01:05.494Z,6.10
2019-02-09T11:02:05.548Z,6.40
2019-02-09T11:03:05.611Z,5.50
2019-02-09T11:04:05.659Z,4.30
2019-02-09T11:05:05.716Z,9.40
2019-02-09T11:06:05.772Z,5.10
2019-02-09T11:07:05.827Z,3.00
2019-02-09T11:08:06.391Z,2.40
2019-02-09T11:09:05.940Z,5.70
2019-02-09T11:10:05.998Z,3.30
2019-02-09T11:11:06.054Z,6.40
2019-02-09T11:12:06.109Z,7.80
2019-02-09T11:13:06.167Z,4.00
2019-02-09T11:14:06.223Z,6.60
2019-02-09T11:15:06.283Z,5.60
2019-02-09T11:16:06.339Z,8.60
2019-02-09T11:17:06.394Z,6.00
2019-02-09T11:18:06.450Z,4.10
2019-02-09T11:19:06.509Z,3.60
2019-02-09T11:20:06.563Z,7.20
2019-02-09T11:21:06.619Z,7.30
2019-02-09T11:22:06.677Z,2.60
2019-02-09T11:23:06.743Z,8.90
2019-02-09T11:24:06.789Z,6.70
2019-02-09T11:25:06.846Z,7.00
2019-02-09T11:26:06.914Z,7.00
2019-02-09T11:27:06.959Z,6.50
2019-02-09T11:28:07.031Z,6.80
2019-02-09T11:29:07.071Z,6.50
2019-02-09T11:30:07.146Z,4.90
2019-02-09T11:31:07.185Z,9.10
2019-02-09T11:32:07.239Z,6.90
2019-02-09T11:33:07.297Z,8.40
2019-02-09T11:34:07.356Z,5.80
2019-02-09T11:35:07.408Z,6.10
2019-02-09T11:36:07.465Z,5.60
2019-02-09T11:37:07.520Z,4.50
2019-02-09T11:38:07.578Z,9.40
2019-02-09T11:39:07.633Z,4.20
2019-02-09T11:40:07.687Z,8.70
2019-02-09T11:41:07.743Z,7.90
2019-02-09T11:42:07.801Z,6.30
2019-02-09T11:43:07.856Z,3.50
2019-02-09T11:44:07.953Z,4.20
2019-02-09T11:45:07.967Z,7.60
2019-02-09T11:46:08.023Z,4.70
2019-02-09T11:47:08.077Z,5.20
2019-02-09T11:48:08.133Z,4.80
2019-02-09T11:49:08.190Z,4.70
2019-02-09T11:50:08.245Z,7.00
2019-02-09T11:51:08.950Z,5.90
2019-02-09T11:52:08.359Z,6.30
2019-02-09T11:53:08.412Z,10.20
2019-02-09T11:54:08.469Z,7.50
2019-02-09T11:55:08.524Z,6.70
2019-02-09T11:56:08.579Z,6.80
2019-02-09T11:57:08.637Z,4.10
2019-02-09T11:58:08.693Z,8.20
2019-02-09T11:59:08.749Z,8.40
2019-02-09T12:00:08.806Z,5.90
2019-02-09T12:01:08.861Z,6.50
2019-02-09T12:02:08.918Z,5.60
2019-02-09T12:03:14.937Z,4.90
2019-02-09T12:04:09.029Z,3.20
2019-02-09T12:05:09.088Z,6.00
2019-02-09T12:06:09.143Z,8.10
2019-02-09T12:07:09.200Z,7.60
2019-02-09T12:08:09.256Z,8.80
2019-02-09T12:09:09.317Z,4.70
2019-02-09T12:10:09.370Z,6.80
2019-02-09T12:11:09.427Z,2.80
2019-02-09T12:12:09.482Z,12.70
2019-02-09T12:13:09.546Z,8.70
2019-02-09T12:14:09.598Z,6.30
2019-02-09T12:15:09.653Z,5.60
2019-02-09T12:16:09.710Z,6.70
2019-02-09T12:17:09.784Z,7.80
2019-02-09T12:18:09.825Z,4.90
2019-02-09T12:19:09.880Z,6.00
2019-02-09T12:20:09.969Z,5.90
2019-02-09T12:21:09.994Z,5.30
2019-02-09T12:22:10.049Z,8.30
2019-02-09T12:23:10.106Z,4.90
2019-02-09T12:24:10.162Z,7.10
2019-02-09T12:25:10.218Z,7.40
2019-02-09T12:26:10.275Z,5.00
2019-02-09T12:27:10.331Z,4.00
2019-02-09T12:28:10.388Z,8.40
2019-02-09T12:29:10.443Z,5.80
2019-02-09T12:30:10.499Z,5.80
2019-02-09T12:31:10.555Z,6.10
2019-02-09T12:32:10.612Z,5.30
2019-02-09T12:33:10.668Z,8.80
2019-02-09T12:34:10.723Z,7.00
2019-02-09T12:35:10.778Z,7.30
2019-02-09T12:36:10.834Z,5.90
2019-02-09T12:37:10.892Z,6.30
2019-02-09T12:38:10.946Z,6.10
2019-02-09T12:39:11.050Z,4.40
2019-02-09T12:40:11.058Z,8.80
2019-02-09T12:41:11.114Z,7.70
2019-02-09T12:42:11.476Z,6.90
2019-02-09T12:43:11.226Z,9.10
2019-02-09T12:44:11.280Z,5.70
2019-02-09T12:45:11.337Z,4.80
2019-02-09T12:46:11.393Z,5.30
2019-02-09T12:47:11.448Z,4.90
2019-02-09T12:48:11.505Z,4.90
2019-02-09T12:49:11.561Z,6.70
2019-02-09T12:50:11.616Z,6.60
2019-02-09T12:51:11.671Z,4.30
2019-02-09T12:52:11.727Z,6.70
2019-02-09T12:53:11.782Z,5.70
2019-02-09T12:54:11.839Z,6.80
2019-02-09T12:55:11.895Z,6.70
2019-02-09T12:56:11.952Z,5.30
2019-02-09T12:57:12.008Z,6.60
2019-02-09T12:58:12.079Z,5.30
2019-02-09T12:59:15.123Z,5.70
2019-02-09T13:00:12.177Z,4.70
2019-02-09T13:01:12.233Z,6.30
2019-02-09T13:02:12.289Z,4.00
2019-02-09T13:03:12.345Z,5.00
2019-02-09T13:04:12.403Z,6.30
2019-02-09T13:05:12.459Z,6.70
2019-02-09T13:06:12.515Z,5.20
2019-02-09T13:07:12.572Z,5.50
2019-02-09T13:08:12.628Z,9.00
2019-02-09T13:09:12.685Z,9.00
2019-02-09T13:10:12.742Z,9.00
2019-02-09T13:11:12.797Z,6.40
2019-02-09T13:12:12.855Z,6.00
2019-02-09T13:13:12.909Z,11.60
2019-02-09T13:14:12.968Z,5.90
2019-02-09T13:15:13.023Z,3.80
2019-02-09T13:16:13.080Z,5.60
2019-02-09T13:17:13.138Z,3.40
2019-02-09T13:18:13.197Z,5.70
2019-02-09T13:19:13.249Z,9.80